createdAt,value
2018-12-22T00:02:23.320Z,71.43
2018-12-22T00:05:00.464Z,80.33
2018-12-22T00:07:36.765Z,68.33
2018-12-22T00:10:09.868Z,66.33
2018-12-22T00:12:46.910Z,211.07
2018-12-22T00:15:23.102Z,53.67
2018-12-22T00:17:59.482Z,62.17
2018-12-22T00:20:32.517Z,50.43
2018-12-22T00:23:09.693Z,72.33
2018-12-22T00:25:42.826Z,91.50
2018-12-22T00:28:22.082Z,90.43
2018-12-22T00:33:21.214Z,77.67
2018-12-22T00:35:54.237Z,87.57
2018-12-22T00:38:26.439Z,102.67
2018-12-22T00:40:58.666Z,107.97
2018-12-22T00:43:35.083Z,89.17
2018-12-22T00:46:08.102Z,97.83
2018-12-22T00:48:40.658Z,163.37
2018-12-22T00:51:17.766Z,132.60
2018-12-22T00:53:50.769Z,99.03
2018-12-22T00:56:26.986Z,98.97
2018-12-22T00:59:04.170Z,93.87
2018-12-22T01:01:41.162Z,95.40
2018-12-22T01:04:17.406Z,132.80
2018-12-22T01:06:54.454Z,63.33
2018-12-22T01:09:30.763Z,98.87
2018-12-22T01:12:07.090Z,97.10
2018-12-22T01:14:40.201Z,82.73
2018-12-22T01:17:12.554Z,104.93
2018-12-22T01:19:45.728Z,139.47
2018-12-22T01:22:21.930Z,67.77
2018-12-22T01:24:58.267Z,68.80
2018-12-22T01:27:30.571Z,57.37
2018-12-22T01:30:03.779Z,71.17
2018-12-22T01:32:40.502Z,71.27
2018-12-22T01:35:13.013Z,67.37
2018-12-22T01:37:50.218Z,74.57
2018-12-22T01:40:22.491Z,92.00
2018-12-22T01:42:54.894Z,741.67
2018-12-22T01:45:31.241Z,772.37
2018-12-22T01:48:03.510Z,763.90
2018-12-22T01:50:39.711Z,605.30
2018-12-22T01:53:12.718Z,133.87
2018-12-22T01:55:49.058Z,92.10
2018-12-22T01:58:31.273Z,112.73
2018-12-22T02:01:04.306Z,90.97
2018-12-22T02:03:40.690Z,165.93
2018-12-22T02:06:13.030Z,94.47
2018-12-22T02:08:49.343Z,82.53
2018-12-22T02:11:25.716Z,64.63
2018-12-22T02:13:58.793Z,62.10
2018-12-22T02:16:35.203Z,56.93
2018-12-22T02:19:08.434Z,58.73
2018-12-22T02:21:44.655Z,55.53
2018-12-22T02:24:16.991Z,66.57
2018-12-22T02:26:53.182Z,64.70
2018-12-22T02:29:26.295Z,54.77
2018-12-22T02:31:58.555Z,58.07
2018-12-22T02:34:30.786Z,1789.20
2018-12-22T02:37:07.198Z,1999.90
2018-12-22T02:39:43.618Z,1999.90
2018-12-22T02:42:16.603Z,1743.93
2018-12-22T02:44:52.927Z,1508.57
2018-12-22T02:47:25.159Z,1520.47
2018-12-22T02:49:58.272Z,1177.83
2018-12-22T02:52:34.522Z,1164.53
2018-12-22T02:55:07.286Z,1010.20
2018-12-22T02:57:39.890Z,1078.43
2018-12-22T03:00:13.050Z,454.60
2018-12-22T03:02:46.018Z,777.17
2018-12-22T03:05:18.944Z,1034.20
2018-12-22T03:07:52.115Z,628.33
2018-12-22T03:10:25.123Z,350.43
2018-12-22T03:13:02.198Z,498.03
2018-12-22T03:15:35.210Z,655.53
2018-12-22T03:18:07.582Z,544.67
2018-12-22T03:20:40.663Z,694.53
2018-12-22T03:23:17.754Z,592.80
2018-12-22T03:25:50.059Z,614.83
2018-12-22T03:28:23.206Z,680.03
2018-12-22T03:30:56.120Z,424.57
2018-12-22T03:33:32.367Z,390.67
2018-12-22T03:36:09.395Z,144.93
2018-12-22T03:38:45.888Z,116.43
2018-12-22T03:41:18.912Z,340.23
2018-12-22T03:43:51.123Z,187.20
2018-12-22T03:46:27.420Z,141.17
2018-12-22T03:48:59.769Z,135.57
2018-12-22T03:51:32.629Z,153.53
2018-12-22T03:54:05.611Z,197.03
2018-12-22T03:56:41.823Z,382.10
2018-12-22T03:59:14.935Z,206.93
2018-12-22T04:01:52.041Z,128.77
2018-12-22T04:04:32.122Z,167.47
2018-12-22T04:07:08.322Z,141.20
2018-12-22T04:09:44.851Z,347.07
2018-12-22T04:12:17.667Z,182.60
2018-12-22T04:14:50.584Z,173.57
2018-12-22T04:17:23.558Z,119.97
2018-12-22T04:19:56.496Z,391.63
2018-12-22T04:22:29.434Z,221.13
2018-12-22T04:25:02.426Z,390.70
2018-12-22T04:27:35.623Z,532.83
2018-12-22T04:30:11.813Z,518.93
2018-12-22T04:32:48.935Z,561.80
2018-12-22T04:35:25.435Z,673.73
2018-12-22T04:37:57.694Z,542.60
2018-12-22T04:40:31.389Z,216.67
2018-12-22T04:43:03.861Z,105.20
2018-12-22T04:45:36.068Z,771.30
2018-12-22T04:48:09.180Z,653.37
2018-12-22T04:50:42.163Z,518.73
2018-12-22T04:53:15.251Z,270.03
2018-12-22T04:55:51.454Z,357.73
2018-12-22T04:58:24.669Z,277.80
2018-12-22T05:00:56.886Z,478.20
2018-12-22T05:03:29.898Z,382.10
2018-12-22T05:06:02.065Z,84.80
2018-12-22T05:08:34.849Z,436.23
2018-12-22T05:11:11.279Z,222.17
2018-12-22T05:13:48.363Z,194.80
2018-12-22T05:16:24.738Z,92.17
2018-12-22T05:18:57.855Z,107.03
2018-12-22T05:21:30.739Z,105.10
2018-12-22T05:24:06.975Z,100.73
2018-12-22T05:26:39.314Z,88.60
2018-12-22T05:29:12.292Z,198.23
2018-12-22T05:31:45.422Z,438.43
2018-12-22T05:34:17.699Z,290.70
2018-12-22T05:36:49.994Z,97.37
2018-12-22T05:46:52.458Z,353.40
2018-12-22T05:49:25.639Z,395.27
2018-12-22T05:51:57.950Z,414.10
2018-12-22T05:54:31.043Z,167.77
2018-12-22T05:57:03.453Z,241.67
2018-12-22T05:59:39.814Z,365.17
2018-12-22T06:02:16.852Z,668.00
2018-12-22T06:04:54.037Z,443.17
2018-12-22T06:07:26.253Z,350.10
2018-12-22T06:10:02.596Z,575.00
2018-12-22T06:12:35.691Z,299.30
2018-12-22T06:15:08.203Z,236.57
2018-12-22T06:17:41.166Z,493.90
2018-12-22T06:20:19.179Z,90.37
2018-12-22T06:22:56.241Z,77.23
2018-12-22T06:25:29.397Z,111.10
2018-12-22T06:28:05.678Z,106.10
2018-12-22T06:30:38.862Z,137.50
2018-12-22T06:33:16.053Z,115.97
2018-12-22T06:35:49.070Z,224.63
2018-12-22T06:38:26.332Z,127.00
2018-12-22T06:40:59.417Z,148.30
2018-12-22T06:43:32.700Z,529.00
2018-12-22T06:46:05.891Z,406.83
2018-12-22T06:48:43.130Z,479.17
2018-12-22T06:51:20.273Z,337.27
2018-12-22T06:53:56.570Z,582.70
2018-12-22T06:56:33.588Z,370.03
2018-12-22T06:59:10.054Z,370.33
2018-12-22T07:01:42.401Z,328.37
2018-12-22T07:04:19.484Z,597.37
2018-12-22T07:06:56.634Z,439.37
2018-12-22T07:09:29.754Z,441.97
2018-12-22T07:12:06.885Z,444.53
2018-12-22T07:14:44.127Z,383.63
2018-12-22T07:17:21.295Z,335.20
2018-12-22T07:19:54.458Z,451.63
2018-12-22T07:22:31.382Z,431.77
2018-12-22T07:25:07.725Z,359.47
2018-12-22T07:27:41.021Z,444.33
2018-12-22T07:30:14.135Z,518.10
2018-12-22T07:32:57.004Z,475.53
2018-12-22T07:35:29.900Z,391.17
2018-12-22T07:38:04.052Z,395.43
2018-12-22T07:40:36.891Z,401.03
2018-12-22T07:43:10.029Z,364.10
2018-12-22T07:45:47.277Z,347.90
2018-12-22T07:48:20.266Z,508.60
2018-12-22T07:50:53.786Z,513.47
2018-12-22T07:53:30.637Z,525.03
2018-12-22T07:56:03.892Z,250.23
2018-12-22T07:58:36.965Z,228.80
2018-12-22T08:01:09.867Z,461.67
2018-12-22T08:03:42.241Z,405.47
2018-12-22T08:06:19.483Z,381.90
2018-12-22T08:08:52.797Z,414.27
2018-12-22T08:11:25.889Z,296.43
2018-12-22T08:14:03.149Z,305.97
2018-12-22T08:16:36.380Z,446.87
2018-12-22T08:19:12.754Z,432.63
2018-12-22T08:21:49.657Z,433.37
2018-12-22T08:24:26.444Z,378.97
2018-12-22T08:26:59.550Z,330.40
2018-12-22T08:29:31.924Z,219.47
2018-12-22T08:32:05.001Z,243.33
2018-12-22T08:34:41.387Z,387.63
2018-12-22T08:37:17.759Z,270.40
2018-12-22T08:39:54.839Z,295.40
2018-12-22T08:42:28.006Z,320.33
2018-12-22T08:45:01.196Z,208.53
2018-12-22T08:47:34.402Z,163.47
2018-12-22T08:50:09.600Z,130.50
2018-12-22T08:52:46.010Z,309.60
2018-12-22T08:55:19.197Z,312.00
2018-12-22T08:57:52.500Z,206.13
2018-12-22T09:00:25.585Z,179.10
2018-12-22T09:02:57.838Z,131.13
2018-12-22T09:05:31.032Z,132.27
2018-12-22T09:08:04.267Z,408.30
2018-12-22T09:10:37.314Z,158.70
2018-12-22T09:13:10.470Z,141.50
2018-12-22T09:15:47.490Z,258.97
2018-12-22T09:18:20.675Z,876.53
2018-12-22T09:20:53.674Z,701.93
2018-12-22T09:23:26.886Z,725.97
2018-12-22T09:26:00.166Z,904.77
2018-12-22T09:28:33.402Z,494.07
2018-12-22T09:31:05.647Z,877.30
2018-12-22T09:33:37.925Z,786.90
2018-12-22T09:36:11.102Z,596.50
2018-12-22T09:38:43.404Z,755.33
2018-12-22T09:41:16.446Z,693.57
2018-12-22T09:43:48.818Z,791.90
2018-12-22T09:46:21.955Z,608.90
2018-12-22T09:48:58.347Z,490.37
2018-12-22T09:51:35.528Z,496.23
2018-12-22T09:54:12.817Z,574.30
2018-12-22T09:56:49.937Z,549.47
2018-12-22T09:59:27.269Z,523.60
2018-12-22T10:02:04.438Z,298.57
2018-12-22T10:04:41.513Z,324.57
2018-12-22T10:07:13.920Z,237.10
2018-12-22T10:09:47.116Z,237.77
2018-12-22T10:12:20.100Z,349.23
2018-12-22T10:14:53.142Z,174.30
2018-12-22T10:17:30.211Z,129.70
2018-12-22T10:20:03.098Z,118.70
2018-12-22T10:22:36.090Z,1197.93
2018-12-22T10:25:11.210Z,969.90
2018-12-22T10:27:44.218Z,1095.27
2018-12-22T10:30:17.958Z,742.13
2018-12-22T10:32:50.433Z,428.90
2018-12-22T10:35:30.014Z,334.00
2018-12-22T10:38:02.579Z,469.47
2018-12-22T10:40:35.727Z,341.03
2018-12-22T10:43:12.267Z,407.80
2018-12-22T10:45:45.478Z,132.70
2018-12-22T10:48:19.410Z,398.87
2018-12-22T10:50:51.885Z,276.50
2018-12-22T10:53:24.230Z,122.87
2018-12-22T10:56:00.603Z,86.47
2018-12-22T10:58:36.922Z,83.97
2018-12-22T11:01:10.172Z,622.83
2018-12-22T11:03:47.322Z,685.70
2018-12-22T11:06:20.406Z,264.80
2018-12-22T11:08:56.740Z,405.43
2018-12-22T11:11:28.990Z,385.97
2018-12-22T11:14:02.138Z,132.37
2018-12-22T11:16:35.270Z,97.20
2018-12-22T11:19:12.499Z,330.20
2018-12-22T11:21:45.681Z,153.30
2018-12-22T11:24:18.690Z,143.50
2018-12-22T11:26:52.185Z,72.93
2018-12-22T11:29:25.119Z,63.57
2018-12-22T11:31:58.281Z,70.87
2018-12-22T11:34:31.576Z,71.33
2018-12-22T11:37:04.718Z,53.37
2018-12-22T11:39:38.118Z,47.03
2018-12-22T11:42:15.385Z,59.13
2018-12-22T11:44:51.682Z,57.67
2018-12-22T11:47:31.339Z,60.33
2018-12-22T11:50:04.618Z,44.43
2018-12-22T11:52:39.448Z,45.67
2018-12-22T11:55:12.487Z,42.03
2018-12-22T11:57:50.373Z,42.13
2018-12-22T12:00:22.997Z,38.53
2018-12-22T12:02:56.107Z,32.43
2018-12-22T12:05:29.079Z,36.70
2018-12-22T12:08:05.492Z,31.43
2018-12-22T12:10:42.616Z,36.93
2018-12-22T12:13:18.931Z,44.67
2018-12-22T12:16:01.300Z,36.20
2018-12-22T12:18:46.994Z,34.27
2018-12-22T12:21:19.579Z,207.87
2018-12-22T12:23:52.398Z,264.13
2018-12-22T12:26:25.540Z,308.67
2018-12-22T12:28:58.846Z,615.03
2018-12-22T12:31:31.847Z,186.33
2018-12-22T12:34:05.028Z,95.47
2018-12-22T12:36:41.418Z,41.47
2018-12-22T12:39:15.963Z,47.57
2018-12-22T12:41:52.716Z,42.00
2018-12-22T12:44:25.887Z,53.60
2018-12-22T12:46:58.202Z,59.63
2018-12-22T12:49:34.549Z,62.33
2018-12-22T12:52:07.802Z,59.47
2018-12-22T12:54:44.943Z,62.53
2018-12-22T12:57:18.190Z,49.00
2018-12-22T12:59:55.266Z,54.67
2018-12-22T13:02:27.542Z,49.57
2018-12-22T13:04:59.775Z,53.50
2018-12-22T13:07:32.074Z,51.50
2018-12-22T13:10:04.679Z,44.80
2018-12-22T13:12:48.314Z,57.60
2018-12-22T13:15:21.006Z,44.03
2018-12-22T13:17:54.307Z,52.37
2018-12-22T13:20:27.699Z,56.30
2018-12-22T13:23:04.492Z,52.67
2018-12-22T13:25:36.814Z,64.03
2018-12-22T13:28:10.019Z,207.43
2018-12-22T13:30:43.294Z,85.33
2018-12-22T13:33:16.828Z,120.87
2018-12-22T13:35:49.563Z,199.43
2018-12-22T13:38:27.498Z,96.60
2018-12-22T13:40:59.972Z,83.83
2018-12-22T13:43:33.166Z,101.40
2018-12-22T13:46:06.255Z,70.33
2018-12-22T13:48:38.572Z,50.50
2018-12-22T13:51:15.813Z,55.73
2018-12-22T13:53:48.969Z,62.93
2018-12-22T13:56:26.154Z,59.83
2018-12-22T13:59:02.707Z,51.00
2018-12-22T14:01:39.091Z,47.10
2018-12-22T14:04:15.513Z,60.83
2018-12-22T14:06:48.861Z,80.90
2018-12-22T14:09:21.890Z,104.20
2018-12-22T14:11:54.960Z,158.80
2018-12-22T14:14:31.877Z,84.67
2018-12-22T14:17:13.427Z,71.97
2018-12-22T14:19:51.196Z,46.73
2018-12-22T14:22:28.723Z,45.33
2018-12-22T14:25:01.765Z,187.63
2018-12-22T14:27:38.419Z,72.27
2018-12-22T14:30:12.471Z,66.83
2018-12-22T14:32:45.530Z,63.33
2018-12-22T14:35:33.845Z,73.80
2018-12-22T14:38:06.936Z,77.83
2018-12-22T14:40:39.826Z,115.53
2018-12-22T14:43:12.890Z,169.50
2018-12-22T14:45:45.981Z,75.57
2018-12-22T14:48:18.361Z,60.10
2018-12-22T14:50:51.370Z,55.50
2018-12-22T14:53:28.561Z,57.60
2018-12-22T14:56:06.226Z,36.13
2018-12-22T14:58:39.106Z,33.07
2018-12-22T15:01:12.082Z,42.37
2018-12-22T15:03:46.495Z,42.37
2018-12-22T15:06:19.142Z,37.00
2018-12-22T15:08:56.255Z,35.30
2018-12-22T15:11:29.334Z,36.07
2018-12-22T15:14:06.323Z,38.17
2018-12-22T15:16:39.522Z,32.50
2018-12-22T15:19:16.837Z,47.13
2018-12-22T15:21:54.802Z,46.73
2018-12-22T15:24:32.359Z,25.57
2018-12-22T15:27:05.388Z,44.73
2018-12-22T15:29:38.771Z,53.37
2018-12-22T15:32:11.864Z,52.40
2018-12-22T15:34:45.153Z,32.60
2018-12-22T15:37:18.162Z,27.80
2018-12-22T15:39:54.487Z,40.93
2018-12-22T15:42:31.695Z,51.07
2018-12-22T15:45:10.971Z,54.33
2018-12-22T15:47:47.454Z,143.00
2018-12-22T15:50:22.125Z,32.90
2018-12-22T15:52:55.162Z,36.73
2018-12-22T15:55:28.168Z,38.13
2018-12-22T15:58:05.327Z,42.50
2018-12-22T16:00:42.410Z,52.40
2018-12-22T16:03:18.684Z,1049.07
2018-12-22T16:05:55.019Z,789.67
2018-12-22T16:08:27.779Z,311.63
2018-12-22T16:11:00.878Z,128.67
2018-12-22T16:13:33.901Z,157.23
2018-12-22T16:16:10.587Z,225.17
2018-12-22T16:18:42.910Z,85.73
2018-12-22T16:21:15.233Z,173.13
2018-12-22T16:23:48.362Z,117.30
2018-12-22T16:26:24.609Z,93.80
2018-12-22T16:29:09.391Z,74.23
2018-12-22T16:31:42.022Z,72.10
2018-12-22T16:34:15.074Z,74.10
2018-12-22T16:36:48.274Z,77.20
2018-12-22T16:39:21.962Z,93.60
2018-12-22T16:41:54.771Z,84.67
2018-12-22T16:44:31.507Z,388.57
2018-12-22T16:47:07.810Z,113.57
2018-12-22T16:49:41.043Z,72.27
2018-12-22T16:52:14.124Z,76.33
2018-12-22T16:54:47.084Z,63.47
2018-12-22T16:57:23.520Z,67.73
2018-12-22T16:59:56.743Z,250.63
2018-12-22T17:02:52.743Z,131.53
2018-12-22T17:05:25.812Z,69.30
2018-12-22T17:08:02.281Z,66.73
2018-12-22T17:10:44.404Z,56.33
2018-12-22T17:13:19.845Z,215.90
2018-12-22T17:15:55.867Z,55.87
2018-12-22T17:18:29.091Z,56.70
2018-12-22T17:21:09.163Z,573.93
2018-12-22T17:23:55.075Z,85.93
2018-12-22T17:26:29.594Z,61.60
2018-12-22T17:29:03.330Z,51.63
2018-12-22T17:31:36.143Z,55.07
2018-12-22T17:34:09.234Z,54.67
2018-12-22T17:36:42.350Z,59.30
2018-12-22T17:39:16.402Z,50.73
2018-12-22T17:41:49.652Z,40.27
2018-12-22T17:44:22.531Z,55.97
2018-12-22T17:46:55.599Z,47.63
2018-12-22T17:49:28.706Z,45.77
2018-12-22T17:52:01.679Z,51.23
2018-12-22T17:54:34.754Z,42.73
2018-12-22T17:57:11.979Z,40.20
2018-12-22T17:59:45.074Z,37.00
2018-12-22T18:02:22.351Z,37.43
2018-12-22T18:04:55.661Z,39.00
2018-12-22T18:07:28.720Z,42.70
2018-12-22T18:10:01.960Z,44.77
2018-12-22T18:12:39.062Z,28.40
2018-12-22T18:15:18.261Z,23.57
2018-12-22T18:17:51.497Z,24.10
2018-12-22T18:20:24.656Z,25.47
2018-12-22T18:22:57.738Z,24.03
2018-12-22T18:25:30.890Z,27.97
2018-12-22T18:28:03.848Z,31.43
2018-12-22T18:30:40.074Z,27.70
2018-12-22T18:33:13.141Z,33.90
2018-12-22T18:35:46.249Z,30.33
2018-12-22T18:38:19.523Z,36.47
2018-12-22T18:40:52.644Z,29.47
2018-12-22T18:43:25.634Z,38.80
2018-12-22T18:45:58.813Z,38.23
2018-12-22T18:48:31.898Z,33.90
2018-12-22T18:51:05.050Z,54.07
2018-12-22T18:53:38.239Z,51.90
2018-12-22T18:56:11.526Z,43.70
2018-12-22T18:58:48.750Z,45.67
2018-12-22T19:01:21.627Z,60.97
2018-12-22T19:03:57.870Z,53.03
2018-12-22T19:06:31.020Z,51.77
2018-12-22T19:09:06.299Z,54.17
2018-12-22T19:11:42.590Z,45.73
2018-12-22T19:14:14.910Z,51.10
2018-12-22T19:16:47.343Z,46.43
2018-12-22T19:19:20.355Z,50.83
2018-12-22T19:21:57.474Z,46.80
2018-12-22T19:24:30.647Z,51.93
2018-12-22T19:27:03.767Z,52.33
2018-12-22T19:29:40.255Z,43.07
2018-12-22T19:32:12.538Z,48.00
2018-12-22T19:34:48.975Z,48.50
2018-12-22T19:37:21.266Z,46.97
2018-12-22T19:39:53.540Z,42.90
2018-12-22T19:42:26.802Z,43.70
2018-12-22T19:44:59.775Z,46.50
2018-12-22T19:47:32.952Z,47.30
2018-12-22T19:50:09.342Z,338.20
2018-12-22T19:52:41.725Z,83.50
2018-12-22T19:55:14.047Z,68.57
2018-12-22T19:57:50.310Z,56.73
2018-12-22T20:00:23.994Z,53.50
2018-12-22T20:02:56.666Z,57.37
2018-12-22T20:05:35.510Z,59.93
2018-12-22T20:08:12.649Z,56.97
2018-12-22T20:10:45.843Z,60.60
2018-12-22T20:13:18.974Z,41.50
2018-12-22T20:15:51.328Z,55.17
2018-12-22T20:18:27.790Z,57.60
2018-12-22T20:21:00.874Z,53.57
2018-12-22T20:23:34.040Z,482.53
2018-12-22T20:26:11.242Z,59.90
2018-12-22T20:28:44.185Z,72.83
2018-12-22T20:31:17.346Z,93.30
2018-12-22T20:33:50.527Z,71.80
2018-12-22T20:36:22.807Z,60.27
2018-12-22T20:38:56.258Z,82.17
2018-12-22T20:41:33.453Z,66.37
2018-12-22T20:44:05.818Z,57.83
2018-12-22T20:46:38.947Z,48.17
2018-12-22T20:49:16.206Z,69.83
2018-12-22T20:51:49.178Z,70.90
2018-12-22T20:54:26.385Z,64.00
2018-12-22T20:57:03.094Z,51.80
2018-12-22T20:59:37.048Z,59.93
2018-12-22T21:02:13.917Z,55.50
2018-12-22T21:04:51.662Z,55.63
2018-12-22T21:07:24.519Z,48.07
2018-12-22T21:09:58.707Z,57.00
2018-12-22T21:12:31.719Z,63.03
2018-12-22T21:15:04.694Z,48.30
2018-12-22T21:17:38.197Z,50.43
2018-12-22T21:20:15.278Z,57.70
2018-12-22T21:22:52.322Z,55.57
2018-12-22T21:25:26.151Z,56.50
2018-12-22T21:27:58.898Z,52.83
2018-12-22T21:30:34.355Z,59.10
2018-12-22T21:33:07.166Z,53.87
2018-12-22T21:35:40.294Z,50.23
2018-12-22T21:38:13.603Z,50.87
2018-12-22T21:40:46.975Z,48.23
2018-12-22T21:43:19.945Z,52.17
2018-12-22T21:45:53.000Z,50.13
2018-12-22T21:48:30.059Z,46.80
2018-12-22T21:51:07.192Z,57.43
2018-12-22T21:53:44.464Z,60.43
2018-12-22T21:56:17.798Z,51.67
2018-12-22T21:58:51.371Z,43.60
2018-12-22T22:01:24.251Z,41.83
2018-12-22T22:04:00.994Z,37.73
2018-12-22T22:06:34.101Z,38.83
2018-12-22T22:09:08.291Z,44.53
2018-12-22T22:11:46.308Z,43.80
2018-12-22T22:14:22.831Z,42.67
2018-12-22T22:16:59.423Z,44.20
2018-12-22T22:19:36.333Z,44.37
2018-12-22T22:22:13.462Z,43.20
2018-12-22T22:24:46.570Z,43.00
2018-12-22T22:27:18.747Z,44.80
2018-12-22T22:29:51.162Z,46.30
2018-12-22T22:32:24.250Z,50.43
2018-12-22T22:35:00.442Z,53.50
2018-12-22T22:37:33.664Z,54.53
2018-12-22T22:40:06.794Z,51.33
2018-12-22T22:42:43.058Z,52.27
2018-12-22T22:45:19.258Z,47.10
2018-12-22T22:47:52.707Z,50.80
2018-12-22T22:50:29.390Z,51.27
2018-12-22T22:53:05.710Z,42.03
2018-12-22T22:55:38.779Z,42.63
2018-12-22T22:58:11.294Z,43.40
2018-12-22T23:00:44.344Z,38.43
2018-12-22T23:03:17.045Z,55.33
2018-12-22T23:05:53.229Z,58.93
2018-12-22T23:08:26.430Z,55.93
2018-12-22T23:11:03.527Z,44.17
2018-12-22T23:13:35.829Z,35.60
2018-12-22T23:16:08.985Z,44.00
2018-12-22T23:18:42.230Z,40.80
2018-12-22T23:21:14.923Z,41.37
2018-12-22T23:23:51.862Z,41.67
2018-12-22T23:26:24.891Z,35.77
2018-12-22T23:29:01.882Z,35.70
2018-12-22T23:31:34.826Z,41.37
2018-12-22T23:34:07.942Z,39.03
2018-12-22T23:36:40.126Z,46.17
2018-12-22T23:39:12.383Z,35.13
2018-12-22T23:41:45.509Z,36.97
2018-12-22T23:44:21.900Z,46.67
2018-12-22T23:46:58.899Z,42.47
2018-12-22T23:49:31.266Z,42.10
2018-12-22T23:52:07.470Z,43.60
2018-12-22T23:54:40.511Z,43.60
2018-12-22T23:57:13.627Z,44.43
2018-12-22T23:59:49.479Z,43.10
